sensor_id;sensor_type;location;lat;lon;timestamp;pressure;altitude;pressure_sealevel;temperature;humidity
33697;BME280;20031;43.416;23.232;2022-11-20T00:01:11;99398.03;;;9.69;93.45
33697;BME280;20031;43.416;23.232;2022-11-20T00:03:37;99397.88;;;9.70;93.76
33697;BME280;20031;43.416;23.232;2022-11-20T00:06:05;99398.84;;;9.69;93.55
33697;BME280;20031;43.416;23.232;2022-11-20T00:08:31;99416.06;;;9.70;93.55
33697;BME280;20031;43.416;23.232;2022-11-20T00:10:56;99401.44;;;9.69;93.81
33697;BME280;20031;43.416;23.232;2022-11-20T00:13:22;99401.44;;;9.69;93.92
33697;BME280;20031;43.416;23.232;2022-11-20T00:15:47;99425.81;;;9.68;93.62
33697;BME280;20031;43.416;23.232;2022-11-20T00:18:13;99428.59;;;9.67;93.85
33697;BME280;20031;43.416;23.232;2022-11-20T00:20:38;99396.25;;;9.69;93.94
33697;BME280;20031;43.416;23.232;2022-11-20T00:23:04;99403.06;;;9.70;93.42
33697;BME280;20031;43.416;23.232;2022-11-20T00:25:31;99411.66;;;9.71;93.64
33697;BME280;20031;43.416;23.232;2022-11-20T00:27:56;99414.91;;;9.73;93.88
33697;BME280;20031;43.416;23.232;2022-11-20T00:30:21;99426.59;;;9.77;93.91
33697;BME280;20031;43.416;23.232;2022-11-20T00:32:47;99431.16;;;9.75;93.60
33697;BME280;20031;43.416;23.232;2022-11-20T00:35:12;99391.03;;;9.77;94.42
33697;BME280;20031;43.416;23.232;2022-11-20T00:37:38;99408.56;;;9.75;93.95
33697;BME280;20031;43.416;23.232;2022-11-20T00:40:03;99423.53;;;9.73;94.25
33697;BME280;20031;43.416;23.232;2022-11-20T00:42:29;99429.88;;;9.71;93.83
33697;BME280;20031;43.416;23.232;2022-11-20T00:44:56;99445.31;;;9.72;94.60
33697;BME280;20031;43.416;23.232;2022-11-20T00:47:21;99406.78;;;9.76;94.55
33697;BME280;20031;43.416;23.232;2022-11-20T00:49:46;99439.75;;;9.75;94.50
33697;BME280;20031;43.416;23.232;2022-11-20T00:52:12;99443.19;;;9.76;94.29
33697;BME280;20031;43.416;23.232;2022-11-20T00:54:37;99433.59;;;9.76;94.48
33697;BME280;20031;43.416;23.232;2022-11-20T00:57:03;99441.41;;;9.76;94.89
33697;BME280;20031;43.416;23.232;2022-11-20T00:59:28;99433.59;;;9.76;94.60
33697;BME280;20031;43.416;23.232;2022-11-20T01:01:54;99431.97;;;9.75;94.66
33697;BME280;20031;43.416;23.232;2022-11-20T01:04:19;99451.78;;;9.76;95.11
33697;BME280;20031;43.416;23.232;2022-11-20T01:06:45;99444.00;;;9.76;95.03
33697;BME280;20031;43.416;23.232;2022-11-20T01:09:12;99439.25;;;9.80;95.40
33697;BME280;20031;43.416;23.232;2022-11-20T01:11:41;99443.50;;;9.81;95.48
33697;BME280;20031;43.416;23.232;2022-11-20T01:14:10;99437.31;;;9.82;95.39
33697;BME280;20031;43.416;23.232;2022-11-20T01:16:38;99436.97;;;9.85;95.50
33697;BME280;20031;43.416;23.232;2022-11-20T01:19:07;99424.94;;;9.84;95.69
33697;BME280;20031;43.416;23.232;2022-11-20T01:21:35;99432.75;;;9.84;95.76
33697;BME280;20031;43.416;23.232;2022-11-20T01:24:02;99430.16;;;9.84;95.71
33697;BME280;20031;43.416;23.232;2022-11-20T01:26:31;99428.38;;;9.84;95.89
33697;BME280;20031;43.416;23.232;2022-11-20T01:28:57;99430.97;;;9.84;96.12
33697;BME280;20031;43.416;23.232;2022-11-20T01:33:55;99432.75;;;9.84;95.88
33697;BME280;20031;43.416;23.232;2022-11-20T01:36:22;99444.94;;;9.83;95.88
33697;BME280;20031;43.416;23.232;2022-11-20T01:38:51;99445.28;;;9.80;95.99
33697;BME280;20031;43.416;23.232;2022-11-20T01:41:17;99457.63;;;9.78;96.39
33697;BME280;20031;43.416;23.232;2022-11-20T01:44:02;99442.03;;;9.78;96.58
33697;BME280;20031;43.416;23.232;2022-11-20T01:46:28;99453.44;;;9.77;96.17
33697;BME280;20031;43.416;23.232;2022-11-20T01:49:02;99460.41;;;9.77;96.72
33697;BME280;20031;43.416;23.232;2022-11-20T01:54:01;99472.59;;;9.76;96.49
33697;BME280;20031;43.416;23.232;2022-11-20T01:56:29;99469.19;;;9.76;96.28
33697;BME280;20031;43.416;23.232;2022-11-20T01:58:59;99464.78;;;9.76;96.61
33697;BME280;20031;43.416;23.232;2022-11-20T02:01:26;99461.22;;;9.77;96.44
33697;BME280;20031;43.416;23.232;2022-11-20T02:03:52;99453.25;;;9.79;97.07
33697;BME280;20031;43.416;23.232;2022-11-20T02:08:46;99474.84;;;9.79;96.47
33697;BME280;20031;43.416;23.232;2022-11-20T02:11:11;99459.25;;;9.79;96.53
33697;BME280;20031;43.416;23.232;2022-11-20T02:13:38;99458.28;;;9.80;96.46
33697;BME280;20031;43.416;23.232;2022-11-20T02:16:21;99450.16;;;9.83;96.99
33697;BME280;20031;43.416;23.232;2022-11-20T02:18:48;99430.31;;;9.82;96.69
33697;BME280;20031;43.416;23.232;2022-11-20T02:26:53;99450.16;;;9.83;96.92
33697;BME280;20031;43.416;23.232;2022-11-20T02:32:06;99460.56;;;9.83;97.12
33697;BME280;20031;43.416;23.232;2022-11-20T02:34:32;99475.00;;;9.86;97.25
33697;BME280;20031;43.416;23.232;2022-11-20T02:36:59;99466.22;;;9.87;97.23
33697;BME280;20031;43.416;23.232;2022-11-20T02:39:26;99469.47;;;9.89;97.07
33697;BME280;20031;43.416;23.232;2022-11-20T02:41:54;99482.31;;;9.90;97.04
33697;BME280;20031;43.416;23.232;2022-11-20T02:44:20;99495.16;;;9.92;97.37
33697;BME280;20031;43.416;23.232;2022-11-20T02:46:46;99495.78;;;9.94;97.39
33697;BME280;20031;43.416;23.232;2022-11-20T02:49:11;99483.63;;;9.94;96.85
33697;BME280;20031;43.416;23.232;2022-11-20T02:51:37;99498.38;;;9.94;97.34
33697;BME280;20031;43.416;23.232;2022-11-20T02:54:02;99482.78;;;9.94;97.35
33697;BME280;20031;43.416;23.232;2022-11-20T02:56:28;99491.25;;;9.96;97.28
33697;BME280;20031;43.416;23.232;2022-11-20T02:58:53;99498.91;;;9.97;97.45
33697;BME280;20031;43.416;23.232;2022-11-20T03:01:19;99483.28;;;9.97;97.32
33697;BME280;20031;43.416;23.232;2022-11-20T03:03:44;99474.50;;;9.98;97.15
33697;BME280;20031;43.416;23.232;2022-11-20T03:06:10;99490.09;;;9.98;97.32
33697;BME280;20031;43.416;23.232;2022-11-20T03:08:35;99516.09;;;9.98;97.23
33697;BME280;20031;43.416;23.232;2022-11-20T03:11:06;99503.09;;;9.98;97.53
33697;BME280;20031;43.416;23.232;2022-11-20T03:13:32;99513.34;;;10.00;97.76
33697;BME280;20031;43.416;23.232;2022-11-20T03:15:57;99515.78;;;10.01;97.85
33697;BME280;20031;43.416;23.232;2022-11-20T03:18:23;99523.75;;;10.00;97.26
33697;BME280;20031;43.416;23.232;2022-11-20T03:20:48;99502.59;;;10.03;97.59
33697;BME280;20031;43.416;23.232;2022-11-20T03:23:14;99513.81;;;10.03;97.65
33697;BME280;20031;43.416;23.232;2022-11-20T03:25:39;99496.59;;;10.02;97.78
33697;BME280;20031;43.416;23.232;2022-11-20T03:28:05;99508.97;;;10.00;97.41
33697;BME280;20031;43.416;23.232;2022-11-20T03:30:30;99527.97;;;10.01;97.57
33697;BME280;20031;43.416;23.232;2022-11-20T03:32:55;99543.41;;;10.02;97.81
33697;BME280;20031;43.416;23.232;2022-11-20T03:35:21;99536.41;;;10.03;98.02
33697;BME280;20031;43.416;23.232;2022-11-20T03:37:46;99524.22;;;10.03;97.61
33697;BME280;20031;43.416;23.232;2022-11-20T03:40:12;99551.06;;;10.04;98.16
33697;BME280;20031;43.416;23.232;2022-11-20T03:42:37;99552.84;;;10.03;97.57
33697;BME280;20031;43.416;23.232;2022-11-20T03:45:16;99571.06;;;10.03;97.98
33697;BME280;20031;43.416;23.232;2022-11-20T03:47:43;99552.00;;;10.03;98.03
33697;BME280;20031;43.416;23.232;2022-11-20T03:50:11;99586.00;;;10.01;97.64
33697;BME280;20031;43.416;23.232;2022-11-20T03:52:40;99574.63;;;10.02;97.71
33697;BME280;20031;43.416;23.232;2022-11-20T03:55:06;99587.00;;;10.00;97.99
33697;BME280;20031;43.416;23.232;2022-11-20T03:57:31;99568.13;;;9.98;98.10
33697;BME280;20031;43.416;23.232;2022-11-20T03:59:57;99578.06;;;9.95;97.53
33697;BME280;20031;43.416;23.232;2022-11-20T04:02:22;99562.44;;;9.87;97.97
33697;BME280;20031;43.416;23.232;2022-11-20T04:04:48;99581.63;;;9.78;97.53
33697;BME280;20031;43.416;23.232;2022-11-20T04:07:13;99559.53;;;9.74;97.77
33697;BME280;20031;43.416;23.232;2022-11-20T04:09:39;99562.63;;;9.69;97.93
33697;BME280;20031;43.416;23.232;2022-11-20T04:12:04;99547.38;;;9.66;97.81
33697;BME280;20031;43.416;23.232;2022-11-20T04:14:30;99575.63;;;9.62;97.89
33697;BME280;20031;43.416;23.232;2022-11-20T04:16:55;99566.22;;;9.61;97.97
33697;BME280;20031;43.416;23.232;2022-11-20T04:19:20;99573.03;;;9.62;98.25
33697;BME280;20031;43.416;23.232;2022-11-20T04:21:46;99565.22;;;9.62;98.27
33697;BME280;20031;43.416;23.232;2022-11-20T04:24:12;99579.06;;;9.62;98.02
33697;BME280;20031;43.416;23.232;2022-11-20T04:26:38;99576.47;;;9.62;98.32
33697;BME280;20031;43.416;23.232;2022-11-20T04:29:04;99586.88;;;9.62;97.89
33697;BME280;20031;43.416;23.232;2022-11-20T04:31:31;99598.06;;;9.63;97.91
33697;BME280;20031;43.416;23.232;2022-11-20T04:34:02;99623.72;;;9.65;98.25
33697;BME280;20031;43.416;23.232;2022-11-20T04:36:28;99621.81;;;9.67;98.16
33697;BME280;20031;43.416;23.232;2022-11-20T04:38:56;99620.00;;;9.68;98.25
33697;BME280;20031;43.416;23.232;2022-11-20T04:41:25;99612.38;;;9.66;97.92
33697;BME280;20031;43.416;23.232;2022-11-20T04:43:53;99592.19;;;9.68;98.12
33697;BME280;20031;43.416;23.232;2022-11-20T04:46:24;99594.16;;;9.66;97.95
33697;BME280;20031;43.416;23.232;2022-11-20T04:48:50;99617.56;;;9.66;98.06
33697;BME280;20031;43.416;23.232;2022-11-20T04:51:15;99605.53;;;9.65;97.76
33697;BME280;20031;43.416;23.232;2022-11-20T04:53:41;99598.72;;;9.65;97.74
33697;BME280;20031;43.416;23.232;2022-11-20T04:56:08;99598.72;;;9.65;97.72
33697;BME280;20031;43.416;23.232;2022-11-20T04:58:35;99585.72;;;9.65;98.07
33697;BME280;20031;43.416;23.232;2022-11-20T05:01:02;99579.06;;;9.62;97.61
33697;BME280;20031;43.416;23.232;2022-11-20T05:03:28;99592.06;;;9.62;98.05
33697;BME280;20031;43.416;23.232;2022-11-20T05:05:53;99588.47;;;9.63;98.14
33697;BME280;20031;43.416;23.232;2022-11-20T05:08:19;99598.22;;;9.61;97.97
33697;BME280;20031;43.416;23.232;2022-11-20T05:10:44;99601.63;;;9.62;97.67
33697;BME280;20031;43.416;23.232;2022-11-20T05:13:09;99603.25;;;9.63;97.99
33697;BME280;20031;43.416;23.232;2022-11-20T05:15:35;99587.66;;;9.63;97.84
33697;BME280;20031;43.416;23.232;2022-11-20T05:18:00;99598.56;;;9.66;98.14
33697;BME280;20031;43.416;23.232;2022-11-20T05:20:26;99612.03;;;9.69;97.92
33697;BME280;20031;43.416;23.232;2022-11-20T05:22:51;99597.41;;;9.68;97.62
33697;BME280;20031;43.416;23.232;2022-11-20T05:25:16;99611.72;;;9.72;97.83
33697;BME280;20031;43.416;23.232;2022-11-20T05:27:42;99616.91;;;9.72;97.65
33697;BME280;20031;43.416;23.232;2022-11-20T05:30:08;99618.88;;;9.70;97.54
33697;BME280;20031;43.416;23.232;2022-11-20T05:32:34;99640.16;;;9.66;97.46
33697;BME280;20031;43.416;23.232;2022-11-20T05:34:59;99652.31;;;9.65;97.80
33697;BME280;20031;43.416;23.232;2022-11-20T05:37:25;99636.72;;;9.65;97.85
33697;BME280;20031;43.416;23.232;2022-11-20T05:39:50;99627.63;;;9.69;97.84
33697;BME280;20031;43.416;23.232;2022-11-20T05:42:15;99622.09;;;9.72;98.12
33697;BME280;20031;43.416;23.232;2022-11-20T05:45:00;99607.31;;;9.81;98.51
33697;BME280;20031;43.416;23.232;2022-11-20T05:47:27;99633.94;;;9.83;97.89
33697;BME280;20031;43.416;23.232;2022-11-20T05:49:53;99632.19;;;9.83;97.83
33697;BME280;20031;43.416;23.232;2022-11-20T05:52:18;99637.06;;;9.86;98.15
33697;BME280;20031;43.416;23.232;2022-11-20T05:54:43;99626.31;;;9.89;97.98
33697;BME280;20031;43.416;23.232;2022-11-20T05:57:09;99585.50;;;9.90;97.75
33697;BME280;20031;43.416;23.232;2022-11-20T05:59:34;99554.28;;;9.90;97.75
33697;BME280;20031;43.416;23.232;2022-11-20T06:02:00;99575.78;;;9.84;97.34
33697;BME280;20031;43.416;23.232;2022-11-20T06:04:25;99577.25;;;9.86;97.81
33697;BME280;20031;43.416;23.232;2022-11-20T06:06:51;99570.91;;;9.89;97.77
33697;BME280;20031;43.416;23.232;2022-11-20T06:09:16;99579.50;;;9.89;97.67
33697;BME280;20031;43.416;23.232;2022-11-20T06:11:41;99591.22;;;9.85;97.55
33697;BME280;20031;43.416;23.232;2022-11-20T06:14:07;99624.88;;;9.79;97.41
33697;BME280;20031;43.416;23.232;2022-11-20T06:16:32;99594.47;;;9.79;97.61
33697;BME280;20031;43.416;23.232;2022-11-20T06:18:57;99585.38;;;9.83;97.57
33697;BME280;20031;43.416;23.232;2022-11-20T06:21:23;99601.94;;;9.82;97.68
33697;BME280;20031;43.416;23.232;2022-11-20T06:23:49;99602.44;;;9.78;97.23
33697;BME280;20031;43.416;23.232;2022-11-20T06:26:18;99585.88;;;9.79;97.41
33697;BME280;20031;43.416;23.232;2022-11-20T06:28:44;99604.06;;;9.79;97.61
33697;BME280;20031;43.416;23.232;2022-11-20T06:31:11;99599.84;;;9.78;97.40
33697;BME280;20031;43.416;23.232;2022-11-20T06:33:36;99580.16;;;9.83;97.81
33697;BME280;20031;43.416;23.232;2022-11-20T06:36:03;99548.97;;;9.83;97.81
33697;BME280;20031;43.416;23.232;2022-11-20T06:38:28;99538.69;;;9.90;97.84
33697;BME280;20031;43.416;23.232;2022-11-20T06:40:54;99558.38;;;9.92;97.59
33697;BME280;20031;43.416;23.232;2022-11-20T06:43:20;99563.72;;;9.91;97.87
33697;BME280;20031;43.416;23.232;2022-11-20T06:45:45;99576.91;;;9.89;96.92
33697;BME280;20031;43.416;23.232;2022-11-20T06:48:11;99567.13;;;9.91;97.37
33697;BME280;20031;43.416;23.232;2022-11-20T06:50:37;99542.59;;;9.94;97.38
33697;BME280;20031;43.416;23.232;2022-11-20T06:53:03;99532.72;;;9.97;97.82
33697;BME280;20031;43.416;23.232;2022-11-20T06:55:29;99539.34;;;10.00;97.56
33697;BME280;20031;43.416;23.232;2022-11-20T06:57:55;99528.13;;;9.99;97.02
33697;BME280;20031;43.416;23.232;2022-11-20T07:00:21;99532.84;;;10.04;97.63
33697;BME280;20031;43.416;23.232;2022-11-20T07:02:46;99535.94;;;10.07;97.42
33697;BME280;20031;43.416;23.232;2022-11-20T07:05:12;99528.94;;;10.08;97.16
33697;BME280;20031;43.416;23.232;2022-11-20T07:07:37;99532.00;;;10.11;97.12
33697;BME280;20031;43.416;23.232;2022-11-20T07:10:03;99529.88;;;10.15;97.33
33697;BME280;20031;43.416;23.232;2022-11-20T07:12:29;99524.16;;;10.19;97.66
33697;BME280;20031;43.416;23.232;2022-11-20T07:14:54;99520.44;;;10.21;97.14
33697;BME280;20031;43.416;23.232;2022-11-20T07:17:20;99523.81;;;10.22;97.07
33697;BME280;20031;43.416;23.232;2022-11-20T07:19:46;99527.88;;;10.24;97.07
33697;BME280;20031;43.416;23.232;2022-11-20T07:22:11;99523.16;;;10.28;96.84
33697;BME280;20031;43.416;23.232;2022-11-20T07:24:36;99515.66;;;10.33;97.23
33697;BME280;20031;43.416;23.232;2022-11-20T07:27:02;99514.78;;;10.40;97.13
33697;BME280;20031;43.416;23.232;2022-11-20T07:29:27;99517.19;;;10.50;97.16
33697;BME280;20031;43.416;23.232;2022-11-20T07:31:53;99509.31;;;10.58;97.17
33697;BME280;20031;43.416;23.232;2022-11-20T07:34:20;99502.44;;;10.65;96.89
33697;BME280;20031;43.416;23.232;2022-11-20T07:36:46;99500.59;;;10.73;97.20
33697;BME280;20031;43.416;23.232;2022-11-20T07:39:11;99503.00;;;10.82;97.22
33697;BME280;20031;43.416;23.232;2022-11-20T07:41:36;99487.47;;;10.89;96.83
33697;BME280;20031;43.416;23.232;2022-11-20T07:44:02;99491.66;;;10.98;96.69
33697;BME280;20031;43.416;23.232;2022-11-20T07:46:27;99494.88;;;11.00;96.17
33697;BME280;20031;43.416;23.232;2022-11-20T07:48:53;99494.09;;;10.99;95.93
33697;BME280;20031;43.416;23.232;2022-11-20T07:51:18;99502.88;;;10.98;95.50
33697;BME280;20031;43.416;23.232;2022-11-20T07:53:44;99488.88;;;10.99;95.17
33697;BME280;20031;43.416;23.232;2022-11-20T07:56:09;99498.47;;;10.99;95.12
33697;BME280;20031;43.416;23.232;2022-11-20T07:58:35;99499.28;;;10.99;94.67
33697;BME280;20031;43.416;23.232;2022-11-20T08:01:06;99512.16;;;11.01;94.91
33697;BME280;20031;43.416;23.232;2022-11-20T08:03:31;99519.44;;;11.05;94.62
33697;BME280;20031;43.416;23.232;2022-11-20T08:06:01;99519.44;;;11.05;94.59
33697;BME280;20031;43.416;23.232;2022-11-20T08:08:27;99519.44;;;11.05;94.27
33697;BME280;20031;43.416;23.232;2022-11-20T08:10:53;99521.06;;;11.06;94.19
33697;BME280;20031;43.416;23.232;2022-11-20T08:13:39;99533.09;;;11.07;93.85
33697;BME280;20031;43.416;23.232;2022-11-20T08:16:23;99523.13;;;11.11;93.79
33697;BME280;20031;43.416;23.232;2022-11-20T08:18:48;99530.31;;;11.09;93.47
33697;BME280;20031;43.416;23.232;2022-11-20T08:21:14;99548.53;;;11.09;93.44
33697;BME280;20031;43.416;23.232;2022-11-20T08:23:40;99551.63;;;11.12;93.60
33697;BME280;20031;43.416;23.232;2022-11-20T08:26:05;99557.66;;;11.13;93.61
33697;BME280;20031;43.416;23.232;2022-11-20T08:28:31;99557.13;;;11.17;93.26
33697;BME280;20031;43.416;23.232;2022-11-20T08:31:02;99550.56;;;11.21;93.62
33697;BME280;20031;43.416;23.232;2022-11-20T08:33:28;99549.31;;;11.17;93.15
33697;BME280;20031;43.416;23.232;2022-11-20T08:36:01;99547.34;;;11.19;93.04
33697;BME280;20031;43.416;23.232;2022-11-20T08:38:27;99549.59;;;11.22;92.94
33697;BME280;20031;43.416;23.232;2022-11-20T08:40:57;99563.25;;;11.24;92.98
33697;BME280;20031;43.416;23.232;2022-11-20T08:43:41;99565.88;;;11.24;92.59
33697;BME280;20031;43.416;23.232;2022-11-20T08:46:06;99574.47;;;11.24;92.36
33697;BME280;20031;43.416;23.232;2022-11-20T08:48:31;99566.53;;;11.26;93.18
33697;BME280;20031;43.416;23.232;2022-11-20T08:50:58;99557.06;;;11.25;92.56
33697;BME280;20031;43.416;23.232;2022-11-20T08:53:24;99515.19;;;11.26;92.73
33697;BME280;20031;43.416;23.232;2022-11-20T08:55:50;99481.13;;;11.28;92.58
33697;BME280;20031;43.416;23.232;2022-11-20T08:58:15;99507.13;;;11.36;93.36
33697;BME280;20031;43.416;23.232;2022-11-20T09:00:40;99510.59;;;11.51;93.60
33697;BME280;20031;43.416;23.232;2022-11-20T09:03:06;99498.53;;;11.64;93.59
33697;BME280;20031;43.416;23.232;2022-11-20T09:05:31;99512.97;;;11.74;92.83
33697;BME280;20031;43.416;23.232;2022-11-20T09:07:57;99494.25;;;11.85;93.18
33697;BME280;20031;43.416;23.232;2022-11-20T09:10:23;99488.31;;;11.91;93.03
33697;BME280;20031;43.416;23.232;2022-11-20T09:12:49;99498.59;;;11.93;92.83
33697;BME280;20031;43.416;23.232;2022-11-20T09:15:15;99509.19;;;11.91;92.45
33697;BME280;20031;43.416;23.232;2022-11-20T09:17:41;99514.59;;;11.90;92.22
33697;BME280;20031;43.416;23.232;2022-11-20T09:20:06;99515.66;;;11.81;91.91
33697;BME280;20031;43.416;23.232;2022-11-20T09:22:32;99507.66;;;11.82;91.95
33697;BME280;20031;43.416;23.232;2022-11-20T09:24:58;99510.25;;;11.82;91.99
33697;BME280;20031;43.416;23.232;2022-11-20T09:27:23;99526.75;;;11.83;92.36
33697;BME280;20031;43.416;23.232;2022-11-20T09:29:49;99509.63;;;11.80;92.11
33697;BME280;20031;43.416;23.232;2022-11-20T09:32:14;99519.63;;;11.77;91.93
33697;BME280;20031;43.416;23.232;2022-11-20T09:34:39;99523.94;;;11.70;91.84
33697;BME280;20031;43.416;23.232;2022-11-20T09:37:05;99502.06;;;11.71;92.32
33697;BME280;20031;43.416;23.232;2022-11-20T09:39:30;99506.13;;;11.73;92.24
33697;BME280;20031;43.416;23.232;2022-11-20T09:42:08;99498.91;;;11.75;92.55
33697;BME280;20031;43.416;23.232;2022-11-20T09:47:33;99493.97;;;11.80;92.38
33697;BME280;20031;43.416;23.232;2022-11-20T09:55:29;99483.91;;;11.77;92.32
33697;BME280;20031;43.416;23.232;2022-11-20T09:57:56;99484.34;;;11.81;92.49
33697;BME280;20031;43.416;23.232;2022-11-20T10:00:23;99478.94;;;11.82;92.56
33697;BME280;20031;43.416;23.232;2022-11-20T10:02:53;99480.22;;;11.86;92.35
33697;BME280;20031;43.416;23.232;2022-11-20T10:05:21;99480.31;;;11.93;92.36
33697;BME280;20031;43.416;23.232;2022-11-20T10:10:34;99487.41;;;12.13;92.36
33697;BME280;20031;43.416;23.232;2022-11-20T10:31:35;99475.34;;;12.47;91.46
33697;BME280;20031;43.416;23.232;2022-11-20T10:34:07;99477.97;;;12.47;91.29
33697;BME280;20031;43.416;23.232;2022-11-20T10:36:52;99479.78;;;12.47;91.32
33697;BME280;20031;43.416;23.232;2022-11-20T10:47:44;99504.81;;;12.41;91.01
33697;BME280;20031;43.416;23.232;2022-11-20T10:50:15;99495.28;;;12.34;90.67
33697;BME280;20031;43.416;23.232;2022-11-20T10:55:30;99484.34;;;12.24;91.34
33697;BME280;20031;43.416;23.232;2022-11-20T11:00:46;99479.00;;;12.18;91.28
33697;BME280;20031;43.416;23.232;2022-11-20T11:03:22;99483.25;;;12.19;91.76
33697;BME280;20031;43.416;23.232;2022-11-20T11:08:21;99472.34;;;12.15;91.86
33697;BME280;20031;43.416;23.232;2022-11-20T11:10:57;99465.91;;;12.11;91.77
33697;BME280;20031;43.416;23.232;2022-11-20T11:13:28;99468.50;;;12.11;92.05
33697;BME280;20031;43.416;23.232;2022-11-20T11:15:54;99453.47;;;12.13;92.36
33697;BME280;20031;43.416;23.232;2022-11-20T11:18:28;99442.47;;;12.18;92.70
33697;BME280;20031;43.416;23.232;2022-11-20T11:20:56;99454.53;;;12.19;92.66
33697;BME280;20031;43.416;23.232;2022-11-20T11:23:34;99468.56;;;12.18;92.36
33697;BME280;20031;43.416;23.232;2022-11-20T11:26:03;99450.84;;;12.13;92.08
33697;BME280;20031;43.416;23.232;2022-11-20T11:28:29;99448.44;;;12.12;92.61
33697;BME280;20031;43.416;23.232;2022-11-20T11:30:55;99446.00;;;12.10;92.93
33697;BME280;20031;43.416;23.232;2022-11-20T11:33:29;99463.66;;;12.08;93.03
33697;BME280;20031;43.416;23.232;2022-11-20T11:35:56;99472.00;;;12.04;93.08
33697;BME280;20031;43.416;23.232;2022-11-20T11:38:43;99483.00;;;11.99;93.55
33697;BME280;20031;43.416;23.232;2022-11-20T11:41:20;99493.19;;;11.94;93.34
33697;BME280;20031;43.416;23.232;2022-11-20T11:43:53;99507.56;;;11.90;93.56
33697;BME280;20031;43.416;23.232;2022-11-20T11:46:39;99520.34;;;11.85;93.64
33697;BME280;20031;43.416;23.232;2022-11-20T12:00:03;99610.72;;;11.42;94.20
33697;BME280;20031;43.416;23.232;2022-11-20T12:05:18;99576.81;;;11.42;95.09
33697;BME280;20031;43.416;23.232;2022-11-20T12:07:48;99539.13;;;11.44;95.49
33697;BME280;20031;43.416;23.232;2022-11-20T12:15:44;99529.41;;;11.38;95.88
33697;BME280;20031;43.416;23.232;2022-11-20T12:18:16;99530.41;;;11.37;95.76
33697;BME280;20031;43.416;23.232;2022-11-20T12:21:12;99513.94;;;11.37;95.76
33697;BME280;20031;43.416;23.232;2022-11-20T12:31:38;99481.06;;;11.36;96.54
33697;BME280;20031;43.416;23.232;2022-11-20T12:39:50;99474.22;;;11.35;96.24
33697;BME280;20031;43.416;23.232;2022-11-20T12:45:10;99496.16;;;11.40;97.24
33697;BME280;20031;43.416;23.232;2022-11-20T12:59:02;99529.94;;;11.56;97.18
33697;BME280;20031;43.416;23.232;2022-11-20T13:01:47;99521.94;;;11.58;97.26
33697;BME280;20031;43.416;23.232;2022-11-20T13:07:19;99520.88;;;11.67;97.98
33697;BME280;20031;43.416;23.232;2022-11-20T13:09:50;99517.72;;;11.71;97.79
33697;BME280;20031;43.416;23.232;2022-11-20T13:12:40;99505.13;;;11.74;97.55
33697;BME280;20031;43.416;23.232;2022-11-20T13:17:59;99516.00;;;11.78;97.69
33697;BME280;20031;43.416;23.232;2022-11-20T13:20:25;99521.06;;;11.79;97.60
33697;BME280;20031;43.416;23.232;2022-11-20T13:22:53;99525.28;;;11.80;97.87
33697;BME280;20031;43.416;23.232;2022-11-20T13:27:53;99514.84;;;11.80;97.34
33697;BME280;20031;43.416;23.232;2022-11-20T13:30:20;99518.25;;;11.81;97.57
33697;BME280;20031;43.416;23.232;2022-11-20T13:33:36;99523.31;;;11.82;98.11
33697;BME280;20031;43.416;23.232;2022-11-20T13:35:41;99532.75;;;11.83;97.84
33697;BME280;20031;43.416;23.232;2022-11-20T13:38:11;99532.56;;;11.85;97.88
33697;BME280;20031;43.416;23.232;2022-11-20T13:40:51;99520.34;;;11.85;97.89
33697;BME280;20031;43.416;23.232;2022-11-20T13:45:56;99499.47;;;11.85;97.90
33697;BME280;20031;43.416;23.232;2022-11-20T13:48:23;99489.03;;;11.85;97.99
33697;BME280;20031;43.416;23.232;2022-11-20T13:51:01;99489.19;;;11.84;98.28
33697;BME280;20031;43.416;23.232;2022-11-20T13:56:47;99478.75;;;11.84;98.38
33697;BME280;20031;43.416;23.232;2022-11-20T14:02:01;99478.59;;;11.85;98.62
33697;BME280;20031;43.416;23.232;2022-11-20T14:04:33;99483.81;;;11.85;98.44
33697;BME280;20031;43.416;23.232;2022-11-20T14:07:00;99482.22;;;11.84;98.83
33697;BME280;20031;43.416;23.232;2022-11-20T14:09:29;99481.38;;;11.84;98.55
33697;BME280;20031;43.416;23.232;2022-11-20T14:11:55;99481.38;;;11.84;98.55
33697;BME280;20031;43.416;23.232;2022-11-20T14:14:24;99476.16;;;11.84;98.51
33697;BME280;20031;43.416;23.232;2022-11-20T14:16:51;99470.13;;;11.83;98.83
33697;BME280;20031;43.416;23.232;2022-11-20T14:21:46;99466.56;;;11.84;98.84
33697;BME280;20031;43.416;23.232;2022-11-20T14:24:13;99470.94;;;11.84;98.31
33697;BME280;20031;43.416;23.232;2022-11-20T14:26:45;99465.09;;;11.82;98.63
33697;BME280;20031;43.416;23.232;2022-11-20T14:29:23;99461.88;;;11.80;98.92
33697;BME280;20031;43.416;23.232;2022-11-20T14:31:53;99456.00;;;11.78;98.92
33697;BME280;20031;43.416;23.232;2022-11-20T14:34:24;99457.81;;;11.77;99.01
33697;BME280;20031;43.416;23.232;2022-11-20T14:36:57;99459.63;;;11.77;98.89
33697;BME280;20031;43.416;23.232;2022-11-20T14:39:47;99458.97;;;11.75;98.99
33697;BME280;20031;43.416;23.232;2022-11-20T14:42:19;99447.09;;;11.72;99.17
33697;BME280;20031;43.416;23.232;2022-11-20T14:44:47;99443.88;;;11.71;98.76
33697;BME280;20031;43.416;23.232;2022-11-20T14:47:17;99446.66;;;11.69;99.00
33697;BME280;20031;43.416;23.232;2022-11-20T14:49:44;99445.03;;;11.68;98.91
33697;BME280;20031;43.416;23.232;2022-11-20T14:52:25;99430.91;;;11.63;98.94
33697;BME280;20031;43.416;23.232;2022-11-20T14:54:53;99427.50;;;11.62;99.11
33697;BME280;20031;43.416;23.232;2022-11-20T14:57:23;99432.91;;;11.61;99.31
33697;BME280;20031;43.416;23.232;2022-11-20T14:59:48;99434.91;;;11.59;99.05
33697;BME280;20031;43.416;23.232;2022-11-20T15:02:14;99439.28;;;11.58;99.30
33697;BME280;20031;43.416;23.232;2022-11-20T15:04:56;99439.28;;;11.58;99.53
33697;BME280;20031;43.416;23.232;2022-11-20T15:07:34;99436.84;;;11.57;99.43